sensor_id;sensor_type;location;lat;lon;timestamp;pressure;altitude;pressure_sealevel;temperature;humidity
23616;BME280;11985;49.404;7.734;2024-01-10T00:00:07;98149.94;;;-6.76;100.00
23616;BME280;11985;49.404;7.734;2024-01-10T00:05:20;98143.16;;;-6.77;100.00
23616;BME280;11985;49.404;7.734;2024-01-10T00:10:36;98134.31;;;-6.89;100.00
23616;BME280;11985;49.404;7.734;2024-01-10T00:15:47;98137.13;;;-6.94;100.00
23616;BME280;11985;49.404;7.734;2024-01-10T00:21:00;98127.03;;;-6.97;100.00
23616;BME280;11985;49.404;7.734;2024-01-10T00:26:17;98123.03;;;-7.02;100.00
23616;BME280;11985;49.404;7.734;2024-01-10T00:31:36;98131.72;;;-7.05;100.00
23616;BME280;11985;49.404;7.734;2024-01-10T00:36:48;98128.16;;;-7.02;100.00
23616;BME280;11985;49.404;7.734;2024-01-10T00:41:58;98117.09;;;-7.03;100.00
23616;BME280;11985;49.404;7.734;2024-01-10T00:47:16;98120.69;;;-7.07;100.00
23616;BME280;11985;49.404;7.734;2024-01-10T00:52:33;98114.84;;;-7.09;100.00
23616;BME280;11985;49.404;7.734;2024-01-10T00:57:43;98112.41;;;-7.12;100.00
23616;BME280;11985;49.404;7.734;2024-01-10T01:02:52;98107.50;;;-7.17;99.89
23616;BME280;11985;49.404;7.734;2024-01-10T01:07:59;98097.53;;;-7.21;100.00
23616;BME280;11985;49.404;7.734;2024-01-10T01:13:10;98093.22;;;-7.21;100.00
23616;BME280;11985;49.404;7.734;2024-01-10T01:18:15;98097.34;;;-7.18;100.00
23616;BME280;11985;49.404;7.734;2024-01-10T01:23:25;98096.31;;;-7.14;100.00
23616;BME280;11985;49.404;7.734;2024-01-10T01:28:30;98093.59;;;-7.11;100.00
23616;BME280;11985;49.404;7.734;2024-01-10T01:33:54;98086.69;;;-7.09;100.00
23616;BME280;11985;49.404;7.734;2024-01-10T01:38:59;98091.63;;;-7.06;100.00
23616;BME280;11985;49.404;7.734;2024-01-10T01:44:11;98078.97;;;-6.92;100.00
23616;BME280;11985;49.404;7.734;2024-01-10T01:49:21;98089.00;;;-6.87;100.00
23616;BME280;11985;49.404;7.734;2024-01-10T01:54:35;98088.16;;;-6.87;100.00
23616;BME280;11985;49.404;7.734;2024-01-10T01:59:50;98078.88;;;-6.90;100.00
23616;BME280;11985;49.404;7.734;2024-01-10T02:05:12;98078.81;;;-6.88;100.00
23616;BME280;11985;49.404;7.734;2024-01-10T02:10:23;98070.06;;;-6.84;100.00
23616;BME280;11985;49.404;7.734;2024-01-10T02:15:38;98068.88;;;-6.77;100.00
23616;BME280;11985;49.404;7.734;2024-01-10T02:20:46;98062.00;;;-6.77;100.00
23616;BME280;11985;49.404;7.734;2024-01-10T02:26:01;98068.41;;;-6.85;100.00
23616;BME280;11985;49.404;7.734;2024-01-10T02:31:15;98053.97;;;-6.86;100.00
23616;BME280;11985;49.404;7.734;2024-01-10T02:36:31;98048.97;;;-6.89;100.00
23616;BME280;11985;49.404;7.734;2024-01-10T02:41:39;98045.09;;;-6.97;100.00
23616;BME280;11985;49.404;7.734;2024-01-10T02:46:48;98038.47;;;-7.01;100.00
23616;BME280;11985;49.404;7.734;2024-01-10T02:51:51;98028.22;;;-7.01;100.00
23616;BME280;11985;49.404;7.734;2024-01-10T02:57:24;98034.97;;;-7.00;100.00
23616;BME280;11985;49.404;7.734;2024-01-10T03:08:11;98047.09;;;-6.86;100.00
23616;BME280;11985;49.404;7.734;2024-01-10T03:13:20;98049.13;;;-6.75;100.00
23616;BME280;11985;49.404;7.734;2024-01-10T03:18:25;98042.16;;;-6.73;100.00
23616;BME280;11985;49.404;7.734;2024-01-10T03:23:49;98041.34;;;-6.74;100.00
23616;BME280;11985;49.404;7.734;2024-01-10T03:29:02;98040.50;;;-6.74;100.00
23616;BME280;11985;49.404;7.734;2024-01-10T03:34:23;98048.13;;;-6.73;100.00
23616;BME280;11985;49.404;7.734;2024-01-10T03:39:27;98044.81;;;-6.75;100.00
23616;BME280;11985;49.404;7.734;2024-01-10T03:44:42;98044.25;;;-6.64;100.00
23616;BME280;11985;49.404;7.734;2024-01-10T03:49:48;98044.94;;;-6.60;100.00
23616;BME280;11985;49.404;7.734;2024-01-10T03:54:59;98053.28;;;-6.57;100.00
23616;BME280;11985;49.404;7.734;2024-01-10T04:00:29;98049.81;;;-6.56;100.00
23616;BME280;11985;49.404;7.734;2024-01-10T04:05:38;98043.66;;;-6.69;100.00
23616;BME280;11985;49.404;7.734;2024-01-10T04:10:54;98052.41;;;-6.73;100.00
23616;BME280;11985;49.404;7.734;2024-01-10T04:16:03;98051.69;;;-6.75;100.00
23616;BME280;11985;49.404;7.734;2024-01-10T04:21:12;98061.00;;;-6.74;100.00
23616;BME280;11985;49.404;7.734;2024-01-10T04:26:23;98068.09;;;-6.79;100.00
23616;BME280;11985;49.404;7.734;2024-01-10T04:31:40;98059.31;;;-6.91;100.00
23616;BME280;11985;49.404;7.734;2024-01-10T04:36:50;98061.28;;;-6.96;100.00
23616;BME280;11985;49.404;7.734;2024-01-10T04:41:58;98061.13;;;-6.93;100.00
23616;BME280;11985;49.404;7.734;2024-01-10T04:47:07;98051.50;;;-6.88;100.00
23616;BME280;11985;49.404;7.734;2024-01-10T04:52:12;98051.09;;;-6.80;100.00
23616;BME280;11985;49.404;7.734;2024-01-10T04:57:15;98050.13;;;-6.62;100.00
23616;BME280;11985;49.404;7.734;2024-01-10T05:02:22;98038.75;;;-6.41;100.00
23616;BME280;11985;49.404;7.734;2024-01-10T05:07:29;98036.69;;;-6.34;100.00
23616;BME280;11985;49.404;7.734;2024-01-10T05:12:34;98039.47;;;-6.39;100.00
23616;BME280;11985;49.404;7.734;2024-01-10T05:17:45;98048.25;;;-6.43;100.00
23616;BME280;11985;49.404;7.734;2024-01-10T05:23:05;98030.66;;;-6.49;100.00
23616;BME280;11985;49.404;7.734;2024-01-10T05:28:15;98032.13;;;-6.45;100.00
23616;BME280;11985;49.404;7.734;2024-01-10T05:33:34;98029.31;;;-6.40;100.00
23616;BME280;11985;49.404;7.734;2024-01-10T05:38:50;98045.28;;;-6.35;100.00
23616;BME280;11985;49.404;7.734;2024-01-10T05:44:06;98048.34;;;-6.28;100.00
23616;BME280;11985;49.404;7.734;2024-01-10T05:49:14;98043.13;;;-6.11;100.00
23616;BME280;11985;49.404;7.734;2024-01-10T05:54:23;98045.16;;;-6.16;100.00
23616;BME280;11985;49.404;7.734;2024-01-10T05:59:26;98047.53;;;-6.13;100.00
23616;BME280;11985;49.404;7.734;2024-01-10T06:04:47;98047.03;;;-6.20;100.00
23616;BME280;11985;49.404;7.734;2024-01-10T06:10:06;98041.47;;;-6.28;100.00
23616;BME280;11985;49.404;7.734;2024-01-10T06:15:29;98042.72;;;-6.19;100.00
23616;BME280;11985;49.404;7.734;2024-01-10T06:20:50;98039.34;;;-6.20;100.00
23616;BME280;11985;49.404;7.734;2024-01-10T06:26:07;98049.34;;;-6.15;100.00
23616;BME280;11985;49.404;7.734;2024-01-10T06:31:14;98041.41;;;-6.10;100.00
23616;BME280;11985;49.404;7.734;2024-01-10T06:36:32;98046.78;;;-6.15;100.00
23616;BME280;11985;49.404;7.734;2024-01-10T06:41:35;98047.69;;;-6.32;100.00
23616;BME280;11985;49.404;7.734;2024-01-10T06:46:53;98049.31;;;-6.47;100.00
23616;BME280;11985;49.404;7.734;2024-01-10T06:52:07;98051.34;;;-6.69;100.00
23616;BME280;11985;49.404;7.734;2024-01-10T06:57:13;98052.72;;;-6.79;100.00
23616;BME280;11985;49.404;7.734;2024-01-10T07:02:23;98054.09;;;-6.89;100.00
23616;BME280;11985;49.404;7.734;2024-01-10T07:07:34;98053.69;;;-6.98;100.00
23616;BME280;11985;49.404;7.734;2024-01-10T07:12:48;98061.13;;;-6.93;100.00
23616;BME280;11985;49.404;7.734;2024-01-10T07:17:52;98066.44;;;-6.80;100.00
23616;BME280;11985;49.404;7.734;2024-01-10T07:23:02;98073.13;;;-6.78;100.00
23616;BME280;11985;49.404;7.734;2024-01-10T07:28:12;98072.16;;;-6.75;100.00
23616;BME280;11985;49.404;7.734;2024-01-10T07:33:17;98077.00;;;-6.86;100.00
23616;BME280;11985;49.404;7.734;2024-01-10T07:38:27;98079.81;;;-6.91;100.00
23616;BME280;11985;49.404;7.734;2024-01-10T07:43:39;98086.44;;;-6.87;100.00
23616;BME280;11985;49.404;7.734;2024-01-10T07:48:49;98089.78;;;-6.69;100.00
23616;BME280;11985;49.404;7.734;2024-01-10T07:54:06;98084.94;;;-6.58;100.00
23616;BME280;11985;49.404;7.734;2024-01-10T07:59:08;98090.66;;;-6.53;100.00
23616;BME280;11985;49.404;7.734;2024-01-10T08:04:22;98083.22;;;-6.42;100.00
23616;BME280;11985;49.404;7.734;2024-01-10T08:09:45;98093.16;;;-6.35;100.00
23616;BME280;11985;49.404;7.734;2024-01-10T08:14:52;98091.44;;;-6.19;100.00
23616;BME280;11985;49.404;7.734;2024-01-10T08:20:10;98098.81;;;-6.13;100.00
23616;BME280;11985;49.404;7.734;2024-01-10T08:25:55;98097.25;;;-6.00;100.00
23616;BME280;11985;49.404;7.734;2024-01-10T08:31:13;98101.47;;;-5.99;100.00
23616;BME280;11985;49.404;7.734;2024-01-10T08:36:41;98103.34;;;-5.87;100.00
23616;BME280;11985;49.404;7.734;2024-01-10T08:41:56;98098.38;;;-5.90;100.00
23616;BME280;11985;49.404;7.734;2024-01-10T08:47:13;98102.81;;;-5.77;100.00
23616;BME280;11985;49.404;7.734;2024-01-10T08:52:28;98106.31;;;-5.78;100.00
23616;BME280;11985;49.404;7.734;2024-01-10T08:57:50;98100.75;;;-5.55;100.00
23616;BME280;11985;49.404;7.734;2024-01-10T09:03:08;98098.91;;;-5.37;100.00
23616;BME280;11985;49.404;7.734;2024-01-10T09:08:17;98101.94;;;-5.31;100.00
23616;BME280;11985;49.404;7.734;2024-01-10T09:13:51;98099.03;;;-5.24;100.00
23616;BME280;11985;49.404;7.734;2024-01-10T09:19:01;98106.28;;;-5.17;100.00
23616;BME280;11985;49.404;7.734;2024-01-10T09:24:14;98110.78;;;-5.20;100.00
23616;BME280;11985;49.404;7.734;2024-01-10T09:29:22;98111.84;;;-5.09;100.00
23616;BME280;11985;49.404;7.734;2024-01-10T09:39:55;98119.75;;;-4.83;100.00
23616;BME280;11985;49.404;7.734;2024-01-10T09:45:07;98126.53;;;-4.66;100.00
23616;BME280;11985;49.404;7.734;2024-01-10T09:50:13;98127.06;;;-4.47;100.00
23616;BME280;11985;49.404;7.734;2024-01-10T09:55:20;98125.34;;;-4.32;100.00
23616;BME280;11985;49.404;7.734;2024-01-10T10:00:28;98109.91;;;-4.18;100.00
23616;BME280;11985;49.404;7.734;2024-01-10T10:05:42;98112.94;;;-4.26;99.18
23616;BME280;11985;49.404;7.734;2024-01-10T10:10:47;98112.00;;;-4.25;98.85
23616;BME280;11985;49.404;7.734;2024-01-10T10:16:07;98115.66;;;-4.00;98.19
23616;BME280;11985;49.404;7.734;2024-01-10T10:21:28;98111.44;;;-3.87;97.71
23616;BME280;11985;49.404;7.734;2024-01-10T10:26:39;98120.00;;;-3.59;96.81
23616;BME280;11985;49.404;7.734;2024-01-10T10:32:01;98112.75;;;-3.40;95.50
23616;BME280;11985;49.404;7.734;2024-01-10T10:37:10;98119.47;;;-3.10;95.08
23616;BME280;11985;49.404;7.734;2024-01-10T10:42:19;98120.81;;;-3.05;92.85
23616;BME280;11985;49.404;7.734;2024-01-10T10:47:34;98114.63;;;-3.02;92.56
23616;BME280;11985;49.404;7.734;2024-01-10T10:52:49;98117.13;;;-2.88;91.85
23616;BME280;11985;49.404;7.734;2024-01-10T10:58:01;98110.34;;;-2.63;90.75
23616;BME280;11985;49.404;7.734;2024-01-10T11:03:14;98111.56;;;-2.56;90.03
23616;BME280;11985;49.404;7.734;2024-01-10T11:08:24;98119.22;;;-2.42;89.20
23616;BME280;11985;49.404;7.734;2024-01-10T11:13:28;98124.06;;;-2.25;88.88
23616;BME280;11985;49.404;7.734;2024-01-10T11:24:02;98124.78;;;-2.10;86.90
23616;BME280;11985;49.404;7.734;2024-01-10T11:29:04;98122.47;;;-2.02;86.43
23616;BME280;11985;49.404;7.734;2024-01-10T11:34:08;98121.88;;;-2.05;85.81
23616;BME280;11985;49.404;7.734;2024-01-10T11:39:13;98117.84;;;-2.09;85.43
23616;BME280;11985;49.404;7.734;2024-01-10T11:44:47;98117.34;;;-2.15;85.37
23616;BME280;11985;49.404;7.734;2024-01-10T11:49:56;98119.19;;;-2.17;85.21
23616;BME280;11985;49.404;7.734;2024-01-10T11:54:58;98114.13;;;-2.05;85.31
23616;BME280;11985;49.404;7.734;2024-01-10T12:00:00;98100.81;;;-1.75;85.23
23616;BME280;11985;49.404;7.734;2024-01-10T12:05:04;98108.09;;;-1.56;85.11
23616;BME280;11985;49.404;7.734;2024-01-10T12:10:08;98096.66;;;-1.65;84.55
23616;BME280;11985;49.404;7.734;2024-01-10T12:15:11;98096.13;;;-1.57;83.39
23616;BME280;11985;49.404;7.734;2024-01-10T12:20:14;98101.13;;;-1.43;83.48
23616;BME280;11985;49.404;7.734;2024-01-10T12:25:17;98093.50;;;-1.34;83.04
23616;BME280;11985;49.404;7.734;2024-01-10T12:30:20;98085.28;;;-1.15;83.54
23616;BME280;11985;49.404;7.734;2024-01-10T12:35:22;98080.63;;;-0.98;83.17
23616;BME280;11985;49.404;7.734;2024-01-10T12:40:24;98087.88;;;-1.03;82.06
23616;BME280;11985;49.404;7.734;2024-01-10T12:45:26;98088.00;;;-1.05;80.60
23616;BME280;11985;49.404;7.734;2024-01-10T12:50:30;98079.06;;;-1.01;81.04
23616;BME280;11985;49.404;7.734;2024-01-10T12:55:31;98083.13;;;-1.21;80.14
23616;BME280;11985;49.404;7.734;2024-01-10T13:00:34;98071.63;;;-1.17;81.07
23616;BME280;11985;49.404;7.734;2024-01-10T13:05:49;98080.91;;;-1.14;80.52
23616;BME280;11985;49.404;7.734;2024-01-10T13:10:53;98074.47;;;-1.09;80.53
23616;BME280;11985;49.404;7.734;2024-01-10T13:16:07;98077.44;;;-1.02;81.33
23616;BME280;11985;49.404;7.734;2024-01-10T13:21:12;98071.34;;;-0.90;81.46
23616;BME280;11985;49.404;7.734;2024-01-10T13:26:13;98084.88;;;-0.86;80.08
23616;BME280;11985;49.404;7.734;2024-01-10T13:31:15;98085.03;;;-0.76;80.56
23616;BME280;11985;49.404;7.734;2024-01-10T13:36:18;98092.53;;;-0.73;80.13
23616;BME280;11985;49.404;7.734;2024-01-10T13:41:20;98093.00;;;-0.80;79.17
23616;BME280;11985;49.404;7.734;2024-01-10T13:46:21;98090.28;;;-0.78;79.96
23616;BME280;11985;49.404;7.734;2024-01-10T13:51:24;98084.88;;;-0.86;79.67
23616;BME280;11985;49.404;7.734;2024-01-10T13:56:31;98099.22;;;-1.17;79.42
23616;BME280;11985;49.404;7.734;2024-01-10T14:01:34;98110.91;;;-1.36;80.52
23616;BME280;11985;49.404;7.734;2024-01-10T14:06:37;98114.69;;;-1.28;81.13
23616;BME280;11985;49.404;7.734;2024-01-10T14:11:38;98108.75;;;-1.18;81.67
23616;BME280;11985;49.404;7.734;2024-01-10T14:16:40;98107.09;;;-1.19;80.89
23616;BME280;11985;49.404;7.734;2024-01-10T14:21:43;98114.84;;;-1.19;81.33
23616;BME280;11985;49.404;7.734;2024-01-10T14:26:45;98105.47;;;-1.20;81.64
23616;BME280;11985;49.404;7.734;2024-01-10T14:31:47;98112.59;;;-1.23;82.32
23616;BME280;11985;49.404;7.734;2024-01-10T14:36:53;98113.72;;;-1.39;82.44
23616;BME280;11985;49.404;7.734;2024-01-10T14:41:55;98113.69;;;-1.63;82.91
23616;BME280;11985;49.404;7.734;2024-01-10T14:47:02;98114.50;;;-1.86;84.51
23616;BME280;11985;49.404;7.734;2024-01-10T15:03:59;98137.75;;;-2.12;88.02
23616;BME280;11985;49.404;7.734;2024-01-10T15:09:00;98143.56;;;-2.21;89.97
23616;BME280;11985;49.404;7.734;2024-01-10T15:14:03;98139.25;;;-2.33;90.74
23616;BME280;11985;49.404;7.734;2024-01-10T15:19:06;98144.59;;;-2.36;91.56
23616;BME280;11985;49.404;7.734;2024-01-10T15:24:08;98147.59;;;-2.42;92.48
23616;BME280;11985;49.404;7.734;2024-01-10T15:29:09;98158.44;;;-2.37;92.90
23616;BME280;11985;49.404;7.734;2024-01-10T15:34:12;98156.69;;;-2.36;93.72
23616;BME280;11985;49.404;7.734;2024-01-10T15:39:14;98153.88;;;-2.46;94.78
23616;BME280;11985;49.404;7.734;2024-01-10T15:44:15;98152.22;;;-2.60;95.48
23616;BME280;11985;49.404;7.734;2024-01-10T15:49:18;98163.44;;;-2.74;96.07
23616;BME280;11985;49.404;7.734;2024-01-10T15:54:20;98154.66;;;-2.84;96.94
23616;BME280;11985;49.404;7.734;2024-01-10T15:59:23;98159.50;;;-2.92;98.06
23616;BME280;11985;49.404;7.734;2024-01-10T16:04:26;98158.72;;;-3.07;99.50
23616;BME280;11985;49.404;7.734;2024-01-10T16:09:27;98176.00;;;-3.22;100.00
23616;BME280;11985;49.404;7.734;2024-01-10T16:14:29;98182.97;;;-3.24;100.00
23616;BME280;11985;49.404;7.734;2024-01-10T16:19:32;98179.16;;;-3.31;100.00
23616;BME280;11985;49.404;7.734;2024-01-10T16:24:33;98183.75;;;-3.36;100.00
23616;BME280;11985;49.404;7.734;2024-01-10T16:29:37;98177.13;;;-3.26;100.00
23616;BME280;11985;49.404;7.734;2024-01-10T16:34:40;98183.09;;;-3.25;100.00
23616;BME280;11985;49.404;7.734;2024-01-10T16:39:42;98193.69;;;-3.30;100.00
23616;BME280;11985;49.404;7.734;2024-01-10T16:44:44;98190.31;;;-3.45;100.00
23616;BME280;11985;49.404;7.734;2024-01-10T16:49:47;98177.91;;;-3.52;100.00
23616;BME280;11985;49.404;7.734;2024-01-10T16:54:49;98183.94;;;-3.66;100.00
23616;BME280;11985;49.404;7.734;2024-01-10T16:59:50;98192.66;;;-3.68;100.00
23616;BME280;11985;49.404;7.734;2024-01-10T17:04:53;98192.88;;;-3.72;100.00
23616;BME280;11985;49.404;7.734;2024-01-10T17:09:55;98196.72;;;-3.79;100.00
23616;BME280;11985;49.404;7.734;2024-01-10T17:14:56;98184.50;;;-3.89;100.00
23616;BME280;11985;49.404;7.734;2024-01-10T17:19:59;98191.41;;;-4.04;100.00
23616;BME280;11985;49.404;7.734;2024-01-10T17:25:04;98193.06;;;-4.03;100.00
23616;BME280;11985;49.404;7.734;2024-01-10T17:30:06;98184.59;;;-3.91;100.00
23616;BME280;11985;49.404;7.734;2024-01-10T17:35:09;98197.47;;;-3.91;100.00
23616;BME280;11985;49.404;7.734;2024-01-10T17:40:11;98191.03;;;-3.98;100.00
23616;BME280;11985;49.404;7.734;2024-01-10T17:45:13;98201.03;;;-4.08;100.00
23616;BME280;11985;49.404;7.734;2024-01-10T17:50:16;98190.84;;;-4.23;100.00
23616;BME280;11985;49.404;7.734;2024-01-10T17:55:18;98203.13;;;-4.29;100.00
23616;BME280;11985;49.404;7.734;2024-01-10T18:00:20;98208.63;;;-4.35;100.00
23616;BME280;11985;49.404;7.734;2024-01-10T18:05:25;98205.34;;;-4.37;100.00
23616;BME280;11985;49.404;7.734;2024-01-10T18:10:26;98212.50;;;-4.42;100.00
23616;BME280;11985;49.404;7.734;2024-01-10T18:15:28;98205.44;;;-4.38;100.00
23616;BME280;11985;49.404;7.734;2024-01-10T18:20:31;98220.78;;;-4.37;100.00
23616;BME280;11985;49.404;7.734;2024-01-10T18:25:33;98226.38;;;-4.30;100.00
23616;BME280;11985;49.404;7.734;2024-01-10T18:30:34;98223.00;;;-4.16;100.00
23616;BME280;11985;49.404;7.734;2024-01-10T18:35:37;98230.94;;;-4.05;100.00
23616;BME280;11985;49.404;7.734;2024-01-10T18:40:39;98235.59;;;-3.97;100.00
23616;BME280;11985;49.404;7.734;2024-01-10T18:45:41;98239.16;;;-4.00;100.00
23616;BME280;11985;49.404;7.734;2024-01-10T18:50:44;98239.91;;;-4.12;100.00
23616;BME280;11985;49.404;7.734;2024-01-10T18:55:45;98243.03;;;-4.21;100.00
23616;BME280;11985;49.404;7.734;2024-01-10T19:00:47;98248.13;;;-4.36;100.00
23616;BME280;11985;49.404;7.734;2024-01-10T19:05:50;98244.28;;;-4.43;100.00
23616;BME280;11985;49.404;7.734;2024-01-10T19:10:52;98251.41;;;-4.48;100.00
23616;BME280;11985;49.404;7.734;2024-01-10T19:15:53;98250.53;;;-4.63;100.00
23616;BME280;11985;49.404;7.734;2024-01-10T19:20:56;98254.75;;;-4.62;100.00
23616;BME280;11985;49.404;7.734;2024-01-10T19:25:58;98257.66;;;-4.52;100.00
23616;BME280;11985;49.404;7.734;2024-01-10T19:31:00;98254.72;;;-4.46;100.00
23616;BME280;11985;49.404;7.734;2024-01-10T19:36:03;98244.53;;;-4.47;100.00
23616;BME280;11985;49.404;7.734;2024-01-10T19:41:05;98253.41;;;-4.53;100.00
23616;BME280;11985;49.404;7.734;2024-01-10T19:46:07;98253.94;;;-4.62;100.00
23616;BME280;11985;49.404;7.734;2024-01-10T19:51:10;98259.44;;;-4.68;100.00
23616;BME280;11985;49.404;7.734;2024-01-10T19:56:12;98262.19;;;-4.71;100.00
23616;BME280;11985;49.404;7.734;2024-01-10T20:01:13;98262.25;;;-4.73;100.00
23616;BME280;11985;49.404;7.734;2024-01-10T20:06:16;98268.31;;;-4.74;100.00
23616;BME280;11985;49.404;7.734;2024-01-10T20:11:18;98267.16;;;-4.84;100.00
23616;BME280;11985;49.404;7.734;2024-01-10T20:16:19;98267.97;;;-4.84;100.00
23616;BME280;11985;49.404;7.734;2024-01-10T20:21:22;98274.97;;;-4.86;100.00
23616;BME280;11985;49.404;7.734;2024-01-10T20:26:24;98285.81;;;-4.81;100.00
23616;BME280;11985;49.404;7.734;2024-01-10T20:31:25;98279.25;;;-4.70;100.00
23616;BME280;11985;49.404;7.734;2024-01-10T20:36:28;98288.38;;;-4.65;100.00
23616;BME280;11985;49.404;7.734;2024-01-10T20:41:30;98286.22;;;-4.72;100.00
23616;BME280;11985;49.404;7.734;2024-01-10T20:46:32;98291.31;;;-4.87;100.00
23616;BME280;11985;49.404;7.734;2024-01-10T20:51:35;98286.91;;;-5.00;100.00
23616;BME280;11985;49.404;7.734;2024-01-10T20:56:36;98285.75;;;-5.11;100.00
23616;BME280;11985;49.404;7.734;2024-01-10T21:01:38;98293.72;;;-5.15;100.00
23616;BME280;11985;49.404;7.734;2024-01-10T21:06:41;98281.84;;;-5.18;100.00
23616;BME280;11985;49.404;7.734;2024-01-10T21:11:43;98288.72;;;-5.18;100.00
23616;BME280;11985;49.404;7.734;2024-01-10T21:16:44;98281.94;;;-5.19;100.00
23616;BME280;11985;49.404;7.734;2024-01-10T21:21:47;98275.97;;;-5.20;100.00
23616;BME280;11985;49.404;7.734;2024-01-10T21:26:49;98278.13;;;-5.12;100.00
23616;BME280;11985;49.404;7.734;2024-01-10T21:31:50;98275.16;;;-5.05;100.00
23616;BME280;11985;49.404;7.734;2024-01-10T21:36:54;98269.34;;;-5.08;100.00
23616;BME280;11985;49.404;7.734;2024-01-10T21:41:56;98269.84;;;-5.17;100.00
23616;BME280;11985;49.404;7.734;2024-01-10T21:46:57;98274.00;;;-5.31;100.00
23616;BME280;11985;49.404;7.734;2024-01-10T21:52:03;98258.00;;;-5.36;100.00
23616;BME280;11985;49.404;7.734;2024-01-10T21:57:05;98273.88;;;-5.45;100.00
23616;BME280;11985;49.404;7.734;2024-01-10T22:02:07;98267.66;;;-5.57;100.00
23616;BME280;11985;49.404;7.734;2024-01-10T22:07:10;98272.28;;;-5.63;100.00
23616;BME280;11985;49.404;7.734;2024-01-10T22:12:12;98264.00;;;-5.68;100.00
23616;BME280;11985;49.404;7.734;2024-01-10T22:17:13;98261.03;;;-5.76;100.00
23616;BME280;11985;49.404;7.734;2024-01-10T22:22:17;98263.00;;;-5.81;100.00
23616;BME280;11985;49.404;7.734;2024-01-10T22:27:19;98255.34;;;-5.83;100.00
23616;BME280;11985;49.404;7.734;2024-01-10T22:32:21;98262.22;;;-5.84;100.00
23616;BME280;11985;49.404;7.734;2024-01-10T22:37:24;98261.63;;;-5.89;100.00
23616;BME280;11985;49.404;7.734;2024-01-10T22:42:26;98249.72;;;-5.90;100.00
23616;BME280;11985;49.404;7.734;2024-01-10T22:47:27;98253.19;;;-5.91;100.00
23616;BME280;11985;49.404;7.734;2024-01-10T22:52:30;98260.44;;;-5.81;100.00
23616;BME280;11985;49.404;7.734;2024-01-10T22:57:32;98257.88;;;-5.81;100.00
23616;BME280;11985;49.404;7.734;2024-01-10T23:02:34;98264.13;;;-5.87;100.00
23616;BME280;11985;49.404;7.734;2024-01-10T23:07:36;98269.19;;;-5.86;100.00
23616;BME280;11985;49.404;7.734;2024-01-10T23:12:38;98271.75;;;-5.86;100.00
23616;BME280;11985;49.404;7.734;2024-01-10T23:17:40;98267.13;;;-5.95;100.00
23616;BME280;11985;49.404;7.734;2024-01-10T23:22:42;98275.72;;;-5.96;100.00
23616;BME280;11985;49.404;7.734;2024-01-10T23:27:46;98271.41;;;-5.95;100.00
23616;BME280;11985;49.404;7.734;2024-01-10T23:32:47;98268.94;;;-5.97;100.00
23616;BME280;11985;49.404;7.734;2024-01-10T23:37:50;98260.50;;;-5.99;100.00
23616;BME280;11985;49.404;7.734;2024-01-10T23:42:52;98266.84;;;-6.06;100.00
23616;BME280;11985;49.404;7.734;2024-01-10T23:47:54;98262.78;;;-6.10;100.00
23616;BME280;11985;49.404;7.734;2024-01-10T23:52:58;98262.84;;;-6.12;100.00
23616;BME280;11985;49.404;7.734;2024-01-10T23:57:59;98254.19;;;-6.09;100.00
